createdAt,value
2023-05-02T00:02:54.365Z,10.26
2023-05-02T00:07:58.217Z,10.22
2023-05-02T00:13:01.669Z,10.19
2023-05-02T00:18:04.936Z,10.14
2023-05-02T00:23:08.294Z,10.09
2023-05-02T00:28:11.745Z,10.05
2023-05-02T00:33:16.121Z,9.98
2023-05-02T00:38:19.540Z,9.94
2023-05-02T00:43:22.953Z,9.91
2023-05-02T00:48:26.769Z,9.86
2023-05-02T00:53:30.231Z,9.81
2023-05-02T00:58:34.662Z,9.78
2023-05-02T01:03:53.592Z,9.76
2023-05-02T01:09:10.953Z,9.70
2023-05-02T01:14:16.143Z,9.67
2023-05-02T01:19:27.927Z,9.65
2023-05-02T01:24:39.344Z,9.60
2023-05-02T01:29:44.698Z,9.57
2023-05-02T01:34:50.069Z,9.57
2023-05-02T01:39:57.386Z,9.54
2023-05-02T01:45:04.102Z,9.47
2023-05-02T01:50:11.566Z,9.41
2023-05-02T01:55:20.777Z,9.37
2023-05-02T02:00:26.463Z,9.36
2023-05-02T02:05:32.559Z,9.32
2023-05-02T02:10:41.165Z,9.30
2023-05-02T02:15:51.169Z,9.26
2023-05-02T02:20:55.693Z,9.23
2023-05-02T02:26:02.887Z,9.20
2023-05-02T02:31:06.381Z,9.18
2023-05-02T02:36:24.602Z,9.15
2023-05-02T02:41:46.872Z,9.16
2023-05-02T02:47:09.204Z,9.15
2023-05-02T02:52:26.465Z,9.11
2023-05-02T02:58:00.861Z,9.10
2023-05-02T03:03:07.396Z,9.07
2023-05-02T03:08:10.878Z,9.04
2023-05-02T03:13:14.614Z,9.02
2023-05-02T03:18:19.379Z,9.00
2023-05-02T03:23:43.252Z,8.98
2023-05-02T03:28:47.310Z,9.00
2023-05-02T03:33:54.569Z,8.99
2023-05-02T03:38:58.575Z,9.01
2023-05-02T03:44:02.124Z,9.08
2023-05-02T03:49:05.911Z,9.20
2023-05-02T03:54:10.142Z,9.30
2023-05-02T03:59:15.246Z,9.36
2023-05-02T04:04:19.959Z,9.41
2023-05-02T04:09:26.530Z,9.43
2023-05-02T04:14:37.824Z,9.47
2023-05-02T04:19:41.831Z,9.55
2023-05-02T04:24:45.746Z,9.64
2023-05-02T04:29:50.757Z,9.72
2023-05-02T04:34:55.971Z,9.80
2023-05-02T04:40:00.422Z,9.88
2023-05-02T04:45:08.413Z,9.95
2023-05-02T04:50:14.654Z,10.02
2023-05-02T04:55:17.943Z,10.12
2023-05-02T05:00:22.039Z,10.24
2023-05-02T05:05:25.789Z,10.49
2023-05-02T05:10:30.139Z,10.99
2023-05-02T05:15:33.616Z,11.76
2023-05-02T05:20:38.921Z,12.47
2023-05-02T05:25:44.236Z,13.18
2023-05-02T05:30:50.843Z,14.03
2023-05-02T05:35:57.728Z,14.66
2023-05-02T05:41:01.941Z,15.21
2023-05-02T05:46:06.225Z,15.44
2023-05-02T05:51:11.217Z,15.29
2023-05-02T05:56:14.648Z,15.63
2023-05-02T06:01:23.875Z,16.03
2023-05-02T06:06:28.210Z,16.43
2023-05-02T06:11:31.654Z,16.80
2023-05-02T06:16:35.749Z,17.46
2023-05-02T06:21:39.431Z,17.75
2023-05-02T06:26:43.388Z,17.70
2023-05-02T06:31:46.698Z,17.85
2023-05-02T06:36:55.656Z,17.95
2023-05-02T06:41:59.130Z,18.23
2023-05-02T06:47:05.435Z,18.57
2023-05-02T06:52:08.738Z,18.48
2023-05-02T06:57:12.178Z,18.48
2023-05-02T07:02:15.454Z,18.49
2023-05-02T07:07:18.997Z,18.90
2023-05-02T07:12:22.562Z,19.34
2023-05-02T07:17:25.951Z,19.67
2023-05-02T07:22:29.223Z,19.91
2023-05-02T07:27:32.902Z,19.99
2023-05-02T07:32:36.822Z,19.99
2023-05-02T07:37:40.253Z,20.07
2023-05-02T07:42:44.382Z,20.04
2023-05-02T07:47:47.803Z,20.07
2023-05-02T07:52:51.473Z,20.10
2023-05-02T07:57:54.686Z,20.18
2023-05-02T08:02:57.994Z,20.23
2023-05-02T08:08:02.107Z,20.28
2023-05-02T08:13:05.236Z,20.29
2023-05-02T08:18:08.602Z,20.37
2023-05-02T08:23:11.999Z,20.39
2023-05-02T08:28:17.677Z,20.49
2023-05-02T08:33:21.203Z,20.58
2023-05-02T08:38:24.353Z,20.67
2023-05-02T08:43:32.877Z,20.65
2023-05-02T08:48:49.588Z,20.76
2023-05-02T08:53:54.634Z,20.95
2023-05-02T08:58:57.774Z,21.00
2023-05-02T09:04:01.056Z,21.10
2023-05-02T09:09:04.327Z,21.23
2023-05-02T09:14:17.646Z,21.35
2023-05-02T09:19:26.238Z,21.45
2023-05-02T09:24:29.971Z,21.37
2023-05-02T09:29:38.120Z,21.27
2023-05-02T09:35:05.049Z,21.24
2023-05-02T09:40:12.001Z,21.14
2023-05-02T09:45:26.203Z,20.98
2023-05-02T09:50:39.265Z,20.91
2023-05-02T09:55:42.623Z,20.97
2023-05-02T10:00:45.954Z,21.11
2023-05-02T10:05:49.894Z,21.28
2023-05-02T10:11:00.968Z,21.36
2023-05-02T10:16:07.059Z,21.23
2023-05-02T10:21:17.858Z,20.98
2023-05-02T10:26:23.604Z,20.69
2023-05-02T10:31:31.537Z,20.42
2023-05-02T10:36:34.789Z,20.29
2023-05-02T10:41:40.221Z,20.11
2023-05-02T10:46:43.722Z,19.88
2023-05-02T10:51:47.287Z,19.64
2023-05-02T10:57:05.734Z,19.41
2023-05-02T11:02:23.681Z,19.15
2023-05-02T11:07:29.248Z,18.67
2023-05-02T11:12:56.760Z,18.34
2023-05-02T11:18:01.046Z,18.02
2023-05-02T11:23:22.296Z,17.73
2023-05-02T11:28:38.432Z,17.50
2023-05-02T11:33:41.703Z,17.51
2023-05-02T11:38:52.265Z,17.65
2023-05-02T11:44:03.884Z,17.85
2023-05-02T11:49:14.888Z,18.07
2023-05-02T11:54:22.902Z,18.23
2023-05-02T11:59:26.697Z,18.33
2023-05-02T12:04:29.975Z,18.33
2023-05-02T12:09:33.253Z,18.34
2023-05-02T12:14:38.210Z,18.53
2023-05-02T12:19:41.567Z,18.77
2023-05-02T12:24:44.879Z,18.99
2023-05-02T12:29:48.948Z,19.12
2023-05-02T12:34:52.113Z,19.14
2023-05-02T12:39:56.978Z,19.21
2023-05-02T12:45:00.757Z,19.23
2023-05-02T12:50:04.461Z,19.23
2023-05-02T12:55:18.685Z,19.13
2023-05-02T13:00:22.076Z,19.06
2023-05-02T13:05:25.807Z,18.98
2023-05-02T13:10:29.398Z,18.84
2023-05-02T13:15:32.713Z,18.73
2023-05-02T13:20:35.892Z,18.74
2023-05-02T13:25:39.186Z,18.77
2023-05-02T13:30:42.613Z,18.91
2023-05-02T13:35:46.560Z,18.97
2023-05-02T13:40:50.171Z,19.03
2023-05-02T13:45:53.646Z,19.09
2023-05-02T13:50:56.873Z,19.12
2023-05-02T13:56:00.596Z,19.14
2023-05-02T14:01:04.628Z,19.24
2023-05-02T14:06:07.978Z,19.35
2023-05-02T14:11:11.529Z,19.34
2023-05-02T14:16:14.764Z,19.34
2023-05-02T14:21:18.100Z,19.41
2023-05-02T14:26:21.669Z,19.50
2023-05-02T14:31:26.431Z,19.54
2023-05-02T14:36:29.690Z,19.37
2023-05-02T14:41:32.924Z,19.27
2023-05-02T14:46:36.210Z,19.19
2023-05-02T14:51:40.100Z,19.12
2023-05-02T14:56:44.105Z,19.10
2023-05-02T15:01:47.493Z,19.03
2023-05-02T15:06:54.326Z,18.92
2023-05-02T15:11:58.266Z,18.85
2023-05-02T15:17:01.816Z,18.80
2023-05-02T15:22:05.401Z,18.80
2023-05-02T15:27:09.712Z,18.75
2023-05-02T15:32:13.277Z,18.70
2023-05-02T15:37:16.632Z,18.70
2023-05-02T15:42:19.786Z,18.71
2023-05-02T15:47:23.100Z,18.69
2023-05-02T15:52:26.866Z,18.70
2023-05-02T15:57:30.144Z,18.76
2023-05-02T16:02:34.266Z,18.79
2023-05-02T16:07:38.832Z,18.81
2023-05-02T16:12:42.024Z,18.83
2023-05-02T16:17:45.417Z,18.84
2023-05-02T16:22:48.807Z,18.83
2023-05-02T16:27:52.189Z,18.82
2023-05-02T16:32:55.588Z,18.82
2023-05-02T16:37:58.935Z,18.77
2023-05-02T16:43:02.311Z,18.68
2023-05-02T16:48:05.859Z,18.64
2023-05-02T16:53:09.117Z,18.58
2023-05-02T16:58:12.363Z,18.51
2023-05-02T17:03:15.801Z,18.46
2023-05-02T17:08:19.227Z,18.39
2023-05-02T17:13:22.532Z,18.32
2023-05-02T17:18:26.606Z,18.21
2023-05-02T17:23:30.657Z,18.12
2023-05-02T17:28:33.881Z,18.06
2023-05-02T17:33:37.478Z,17.94
2023-05-02T17:38:42.016Z,17.82
2023-05-02T17:43:45.184Z,17.68
2023-05-02T17:48:49.187Z,17.54
2023-05-02T17:53:52.590Z,17.40
2023-05-02T17:58:56.383Z,17.24
2023-05-02T18:03:59.872Z,17.10
2023-05-02T18:09:03.473Z,17.00
2023-05-02T18:14:13.736Z,16.91
2023-05-02T18:19:17.414Z,16.79
2023-05-02T18:24:20.797Z,16.69
2023-05-02T18:29:24.362Z,16.65
2023-05-02T18:34:37.790Z,16.61
2023-05-02T18:39:41.988Z,16.62
2023-05-02T18:44:45.625Z,16.66
2023-05-02T18:49:50.364Z,16.70
2023-05-02T18:54:53.838Z,16.74
2023-05-02T18:59:57.109Z,16.74
2023-05-02T19:05:00.845Z,16.74
2023-05-02T19:10:04.997Z,16.75
2023-05-02T19:15:08.728Z,16.69
2023-05-02T19:20:12.817Z,16.61
2023-05-02T19:25:21.680Z,16.57
2023-05-02T19:30:25.359Z,16.52
2023-05-02T19:35:28.753Z,16.47
2023-05-02T19:40:32.011Z,16.35
2023-05-02T19:45:35.454Z,16.23
2023-05-02T19:50:38.983Z,16.06
2023-05-02T19:55:42.478Z,15.84
2023-05-02T20:00:49.373Z,15.63
2023-05-02T20:05:52.890Z,15.52
2023-05-02T20:10:56.544Z,15.49
2023-05-02T20:16:00.449Z,15.40
2023-05-02T20:21:03.997Z,15.32
2023-05-02T20:26:07.230Z,15.25
2023-05-02T20:31:10.414Z,15.20
2023-05-02T20:36:15.194Z,15.15
2023-05-02T20:41:18.792Z,15.09
2023-05-02T20:46:22.633Z,14.99
2023-05-02T20:51:29.781Z,14.92
2023-05-02T20:56:33.365Z,14.87
2023-05-02T21:01:36.693Z,14.85
2023-05-02T21:06:40.045Z,14.81
2023-05-02T21:11:43.729Z,14.72
2023-05-02T21:16:46.925Z,14.62
2023-05-02T21:21:50.462Z,14.50
2023-05-02T21:26:53.689Z,14.37
2023-05-02T21:31:56.912Z,14.24
2023-05-02T21:37:00.750Z,14.12
2023-05-02T21:42:05.015Z,13.98
2023-05-02T21:47:08.472Z,13.87
2023-05-02T21:52:11.814Z,13.85
2023-05-02T21:57:15.067Z,13.82
2023-05-02T22:02:18.495Z,13.78
2023-05-02T22:07:21.970Z,13.68
2023-05-02T22:12:26.899Z,13.54
2023-05-02T22:17:31.858Z,13.36
2023-05-02T22:22:35.557Z,13.18
2023-05-02T22:27:47.986Z,13.10
2023-05-02T22:32:51.360Z,13.04
2023-05-02T22:37:55.561Z,13.01
2023-05-02T22:43:19.447Z,12.98
2023-05-02T22:48:22.767Z,12.90
2023-05-02T22:53:26.210Z,12.86
2023-05-02T22:58:29.618Z,12.82
2023-05-02T23:03:33.300Z,12.78
2023-05-02T23:08:36.836Z,12.69
2023-05-02T23:13:40.232Z,12.60
2023-05-02T23:18:43.753Z,12.51
2023-05-02T23:23:47.231Z,12.45
2023-05-02T23:28:53.294Z,12.38
2023-05-02T23:33:56.681Z,12.37
2023-05-02T23:39:02.553Z,12.38
2023-05-02T23:44:26.578Z,12.38
2023-05-02T23:49:29.808Z,12.33
2023-05-02T23:54:35.022Z,12.26
2023-05-02T23:59:38.541Z,12.20
